Time;durP1;ratioP1;P1;durP2;ratioP2;P2;SDS_P1;SDS_P2;PMS_P1;PMS_P2;Temp;Humidity;BMP_temperature;BMP_pressure;BME280_temperature;BME280_humidity;BME280_pressure;Samples;Min_cycle;Max_cycle;Signal;HPM_P1;HPM_P2
2021/08/14 00:00:20;;;;;;;;;0.00;0.00;;;;;21.19;51.55;101920.59;6089204;23;59963;-83
2021/08/14 00:02:45;;;;;;;;;0.00;0.00;;;;;21.46;51.77;101976.59;6089952;23;45534;-82
2021/08/14 00:05:11;;;;;;;;;0.00;0.00;;;;;21.20;51.10;101939.13;6090434;23;45238;-83
2021/08/14 00:07:36;;;;;;;;;0.75;0.00;;;;;21.14;51.94;101939.22;6087896;23;47244;-83
2021/08/14 00:10:03;;;;;;;;;0.00;0.00;;;;;20.87;51.56;101885.78;6088877;23;50670;-83
2021/08/14 00:12:29;;;;;;;;;0.00;0.00;;;;;20.62;52.00;101867.69;6089096;23;45586;-82
2021/08/14 00:14:54;;;;;;;;;0.00;0.00;;;;;20.83;51.67;101897.34;6089993;23;45361;-82
2021/08/14 00:17:19;;;;;;;;;0.00;0.00;;;;;21.17;51.81;101962.09;6089624;23;45169;-82
2021/08/14 00:19:45;;;;;;;;;0.00;0.00;;;;;20.46;51.91;101852.03;6089584;23;45363;-83
2021/08/14 00:22:10;;;;;;;;;0.00;0.00;;;;;20.91;52.41;101948.38;6088078;23;45328;-84
2021/08/14 00:24:35;;;;;;;;;2.00;0.75;;;;;20.21;52.28;101843.63;6089817;23;45634;-82
2021/08/14 00:27:01;;;;;;;;;0.00;0.00;;;;;20.71;52.48;101930.16;6089287;23;46126;-83
2021/08/14 00:29:26;;;;;;;;;0.00;0.00;;;;;20.58;52.43;101908.31;6088932;23;57272;-83
2021/08/14 00:31:51;;;;;;;;;0.00;0.00;;;;;20.26;52.36;101860.25;6089895;23;45423;-82
2021/08/14 00:34:16;;;;;;;;;0.00;0.00;;;;;20.71;52.27;101952.19;6089932;23;45336;-80
2021/08/14 00:36:42;;;;;;;;;0.00;0.00;;;;;19.92;52.65;101823.69;6089561;23;45321;-83
2021/08/14 00:39:07;;;;;;;;;1.00;0.00;;;;;20.24;52.53;101862.94;6089214;23;45273;-83
2021/08/14 00:41:33;;;;;;;;;0.00;0.00;;;;;20.85;52.51;101961.66;6087652;23;45254;-83
2021/08/14 00:44:02;;;;;;;;;0.00;0.00;;;;;20.75;52.19;101938.03;6089930;23;45331;-83
2021/08/14 00:46:29;;;;;;;;;0.00;0.00;;;;;20.85;51.88;101951.09;6087465;23;47842;-83
2021/08/14 00:48:58;;;;;;;;;0.00;0.00;;;;;20.33;52.33;101872.50;6089512;23;45400;-83
2021/08/14 00:51:24;;;;;;;;;0.50;0.00;;;;;20.20;52.16;101857.69;6089677;23;45596;-82
2021/08/14 00:53:50;;;;;;;;;0.00;0.00;;;;;20.63;51.58;101932.91;6089553;23;45406;-83
2021/08/14 00:56:19;;;;;;;;;0.00;0.00;;;;;20.12;51.86;101844.59;6089345;23;46092;-84
2021/08/14 00:58:44;;;;;;;;;0.00;0.00;;;;;20.22;51.67;101871.78;6087448;23;45329;-84
2021/08/14 01:01:10;;;;;;;;;0.00;0.00;;;;;20.11;51.89;101849.03;6089485;23;45229;-83
2021/08/14 01:03:36;;;;;;;;;0.00;0.00;;;;;19.99;52.05;101835.94;6089692;23;45301;-83
2021/08/14 01:06:02;;;;;;;;;0.00;0.00;;;;;20.09;52.11;101849.94;6089489;23;46176;-83
2021/08/14 01:08:27;;;;;;;;;0.00;0.00;;;;;20.19;51.54;101891.22;6088676;23;45370;-83
2021/08/14 01:10:53;;;;;;;;;0.00;0.00;;;;;20.53;52.04;101939.22;6089205;23;45348;-84
2021/08/14 01:13:19;;;;;;;;;0.00;0.00;;;;;20.15;51.91;101880.69;6089172;23;45245;-84
2021/08/14 01:15:50;;;;;;;;;0.00;0.00;;;;;20.40;51.98;101902.38;6089130;23;45282;-82
2021/08/14 01:18:16;;;;;;;;;0.00;0.00;;;;;20.33;52.23;101888.38;6087114;23;46200;-82
2021/08/14 01:20:43;;;;;;;;;0.00;0.00;;;;;20.08;51.51;101837.59;6089468;23;45482;-83
2021/08/14 01:23:10;;;;;;;;;0.00;0.00;;;;;20.71;52.23;101946.91;6089161;23;45381;-83
2021/08/14 01:25:35;;;;;;;;;0.00;0.00;;;;;20.47;51.98;101914.63;6089262;23;45505;-83
2021/08/14 01:28:01;;;;;;;;;0.00;0.00;;;;;19.99;51.83;101820.97;6089217;23;45226;-82
2021/08/14 01:30:26;;;;;;;;;0.00;0.00;;;;;20.45;52.01;101897.88;6089069;23;45301;-81
2021/08/14 01:32:52;;;;;;;;;0.00;0.00;;;;;20.46;52.58;101917.28;6089322;23;45325;-83
2021/08/14 01:35:17;;;;;;;;;0.00;0.00;;;;;20.64;52.78;101935.53;6089085;23;45372;-82
2021/08/14 01:37:43;;;;;;;;;0.25;0.00;;;;;20.22;52.74;101870.00;6088702;23;45289;-81
2021/08/14 01:40:08;;;;;;;;;0.00;0.00;;;;;19.99;52.74;101823.59;6087082;23;45338;-82
2021/08/14 01:42:34;;;;;;;;;0.00;0.00;;;;;20.64;52.93;101938.16;6088980;23;45365;-82
2021/08/14 01:44:59;;;;;;;;;0.00;0.00;;;;;20.10;53.11;101849.03;6088891;23;46135;-82
2021/08/14 01:47:24;;;;;;;;;0.00;0.00;;;;;19.60;52.84;101771.25;6088875;23;45391;-83
2021/08/14 01:49:49;;;;;;;;;0.00;0.00;;;;;20.19;53.11;101880.63;6089190;23;45369;-83
2021/08/14 01:52:17;;;;;;;;;0.00;0.00;;;;;20.03;52.71;101860.59;6089186;23;45295;-82
2021/08/14 01:54:43;;;;;;;;;0.00;0.00;;;;;19.91;52.93;101829.88;6087125;23;48014;-82
2021/08/14 01:57:09;;;;;;;;;5.00;2.00;;;;;20.47;52.89;101930.50;6086996;23;45794;-82
2021/08/14 01:59:36;;;;;;;;;0.25;0.25;;;;;20.44;53.11;101922.59;6091035;23;45246;-83
2021/08/14 02:02:02;;;;;;;;;0.00;0.00;;;;;20.07;53.16;101867.56;6091220;23;45282;-82
2021/08/14 02:04:28;;;;;;;;;0.00;0.00;;;;;19.93;52.66;101841.28;6090891;23;46811;-82
2021/08/14 02:06:53;;;;;;;;;0.00;0.00;;;;;19.91;52.62;101836.06;6090481;23;45384;-82
2021/08/14 02:09:19;;;;;;;;;0.00;0.00;;;;;20.03;52.66;101842.09;6091051;23;45298;-82
2021/08/14 02:11:45;;;;;;;;;0.00;0.00;;;;;20.11;52.42;101846.38;6089198;23;45298;-83
2021/08/14 02:14:11;;;;;;;;;0.00;0.00;;;;;19.91;52.25;101816.66;6091159;23;46441;-82
2021/08/14 02:16:37;;;;;;;;;0.00;0.00;;;;;19.93;52.64;101828.97;6090453;23;45421;-83
2021/08/14 02:19:03;;;;;;;;;0.00;0.00;;;;;19.59;52.35;101779.19;6090939;23;45277;-83
2021/08/14 02:21:29;;;;;;;;;1.00;0.00;;;;;20.40;52.42;101906.78;6088844;23;45380;-82
2021/08/14 02:23:55;;;;;;;;;0.00;0.00;;;;;19.88;52.46;101834.31;6091060;23;45483;-81
2021/08/14 02:26:21;;;;;;;;;0.00;0.00;;;;;19.75;52.48;101822.13;6090874;23;45245;-81
2021/08/14 02:28:46;;;;;;;;;0.00;0.00;;;;;19.61;52.52;101815.25;6090905;23;45349;-82
2021/08/14 02:31:12;;;;;;;;;0.00;0.00;;;;;19.83;52.93;101846.72;6091371;23;45422;-82
2021/08/14 02:33:37;;;;;;;;;1.00;0.00;;;;;20.03;52.59;101892.31;6090714;23;45396;-82
2021/08/14 02:36:04;;;;;;;;;0.00;0.00;;;;;20.07;53.08;101900.19;6090007;23;45484;-81
2021/08/14 02:38:30;;;;;;;;;0.00;0.00;;;;;19.58;53.40;101836.44;6090843;23;45320;-82
2021/08/14 02:40:56;;;;;;;;;0.00;0.00;;;;;19.49;53.34;101829.50;6090888;23;45399;-82
2021/08/14 02:43:21;;;;;;;;;0.00;0.00;;;;;19.40;53.53;101808.47;6090662;23;45287;-82
2021/08/14 02:45:47;;;;;;;;;0.00;0.00;;;;;19.63;53.38;101834.63;6090585;23;45454;-82
2021/08/14 02:48:13;;;;;;;;;0.00;0.00;;;;;19.60;53.31;101833.78;6088836;23;45259;-82
2021/08/14 02:50:42;;;;;;;;;0.00;0.00;;;;;20.05;53.42;101898.41;6088708;23;45279;-82
2021/08/14 02:53:08;;;;;;;;;0.00;0.00;;;;;19.66;53.44;101843.41;6090558;23;46377;-81
2021/08/14 02:55:33;;;;;;;;;0.00;0.00;;;;;19.79;53.92;101857.34;6090646;23;45341;-82
2021/08/14 02:57:58;;;;;;;;;0.00;0.00;;;;;19.45;53.35;101790.81;6088811;23;45742;-82
2021/08/14 03:00:24;;;;;;;;;0.00;0.00;;;;;19.61;53.52;101814.41;6090757;23;45246;-82
2021/08/14 03:02:49;;;;;;;;;0.00;0.00;;;;;19.63;53.36;101809.97;6090606;23;45996;-82
2021/08/14 03:05:15;;;;;;;;;0.00;0.00;;;;;19.53;53.41;101782.81;6088069;23;45333;-82
2021/08/14 03:07:40;;;;;;;;;0.00;0.00;;;;;19.41;53.00;101767.13;6090210;23;45614;-83
2021/08/14 03:10:06;;;;;;;;;0.75;0.00;;;;;19.70;53.27;101803.72;6088756;23;45464;-83
2021/08/14 03:12:32;;;;;;;;;0.00;0.00;;;;;19.39;53.45;101753.06;6088061;23;47231;-82
2021/08/14 03:14:57;;;;;;;;;0.00;0.00;;;;;19.95;53.31;101856.25;6090136;23;45321;-82
2021/08/14 03:17:22;;;;;;;;;0.00;0.00;;;;;19.36;52.97;101753.97;6090576;23;45632;-82
2021/08/14 03:19:48;;;;;;;;;0.00;0.00;;;;;19.34;53.55;101753.13;6089931;23;45458;-82
2021/08/14 03:22:13;;;;;;;;;0.00;0.00;;;;;19.63;53.58;101804.69;6087620;23;47161;-82
2021/08/14 03:24:39;;;;;;;;;0.00;0.00;;;;;20.09;53.43;101871.09;6090102;23;45281;-82
2021/08/14 03:27:05;;;;;;;;;0.00;0.00;;;;;19.93;53.58;101854.50;6088042;23;45231;-82
2021/08/14 03:29:31;;;;;;;;;0.00;0.00;;;;;19.97;53.67;101872.94;6088187;23;45328;-83
2021/08/14 03:31:57;;;;;;;;;0.75;0.00;;;;;19.17;53.89;101750.69;6089929;23;46110;-83
2021/08/14 03:34:22;;;;;;;;;0.00;0.00;;;;;19.45;53.75;101809.28;6089874;23;45393;-82
2021/08/14 03:36:47;;;;;;;;;0.00;0.00;;;;;19.63;54.10;101841.66;6089938;23;45312;-83
2021/08/14 03:39:13;;;;;;;;;0.00;0.00;;;;;19.34;53.88;101793.59;6090447;23;45368;-81
2021/08/14 03:41:38;;;;;;;;;0.00;0.00;;;;;19.19;53.90;101755.03;6089180;23;51844;-82
2021/08/14 03:44:04;;;;;;;;;0.00;0.00;;;;;19.48;54.10;101822.47;6089701;23;45407;-83
2021/08/14 03:46:30;;;;;;;;;0.00;0.00;;;;;19.83;53.93;101873.13;6089464;23;45372;-81
2021/08/14 03:48:55;;;;;;;;;1.00;0.00;;;;;19.77;54.01;101859.09;6087829;23;45393;-82
2021/08/14 03:51:20;;;;;;;;;0.00;0.00;;;;;19.82;53.88;101873.16;6087387;23;47494;-82
2021/08/14 03:53:46;;;;;;;;;0.00;0.00;;;;;19.17;53.90;101764.72;6089546;23;45401;-82
2021/08/14 03:56:11;;;;;;;;;0.00;0.00;;;;;19.78;54.08;101864.38;6089514;23;47267;-83
2021/08/14 03:58:36;;;;;;;;;0.00;0.00;;;;;19.52;53.78;101819.78;6088398;23;45555;-82
2021/08/14 04:01:02;;;;;;;;;0.00;0.00;;;;;19.36;54.07;101789.16;6089336;23;45897;-82
2021/08/14 04:03:29;;;;;;;;;0.00;0.00;;;;;19.46;53.76;101792.59;6088947;23;45231;-82
2021/08/14 04:05:55;;;;;;;;;0.00;0.00;;;;;19.30;54.12;101768.13;6087384;23;45322;-82
2021/08/14 04:08:20;;;;;;;;;0.00;0.00;;;;;19.10;53.95;101728.75;6087426;23;45518;-82
2021/08/14 04:10:46;;;;;;;;;1.50;0.00;;;;;19.40;53.94;101779.44;6089474;23;45331;-83
2021/08/14 04:13:11;;;;;;;;;0.00;0.00;;;;;19.14;54.54;101742.78;6087269;23;45835;-83
2021/08/14 04:15:37;;;;;;;;;0.50;0.00;;;;;19.66;54.02;101825.78;6089332;23;45383;-82
2021/08/14 04:18:02;;;;;;;;;0.00;0.00;;;;;18.91;53.99;101699.03;6089631;23;45329;-82
2021/08/14 04:20:28;;;;;;;;;0.00;0.00;;;;;19.13;53.88;101731.34;6089018;23;45899;-83
2021/08/14 04:22:53;;;;;;;;;1.00;0.00;;;;;19.25;54.23;101754.09;6089147;23;45392;-82
2021/08/14 04:25:18;;;;;;;;;0.00;0.00;;;;;19.02;54.20;101722.66;6089912;23;45420;-82
2021/08/14 04:27:44;;;;;;;;;0.00;0.00;;;;;19.39;54.12;101788.25;6089511;23;45308;-82
2021/08/14 04:30:10;;;;;;;;;0.00;0.00;;;;;18.86;54.27;101702.59;6089378;23;46367;-82
2021/08/14 04:32:36;;;;;;;;;0.00;0.00;;;;;19.22;54.15;101751.50;6088658;23;45392;-83
2021/08/14 04:35:06;;;;;;;;;0.00;0.00;;;;;19.35;54.48;101797.97;6087648;23;45425;-82
2021/08/14 04:37:32;;;;;;;;;0.00;0.00;;;;;19.24;54.42;101762.91;6089448;23;45360;-82
2021/08/14 04:39:58;;;;;;;;;0.75;0.00;;;;;19.12;54.61;101748.09;6087274;23;47109;-83
2021/08/14 04:42:23;;;;;;;;;2.50;1.00;;;;;19.16;54.67;101759.47;6088864;23;45417;-83
2021/08/14 04:44:48;;;;;;;;;0.00;0.00;;;;;19.57;54.52;101807.41;6089064;23;45345;-82
2021/08/14 04:47:14;;;;;;;;;0.00;0.00;;;;;19.41;54.34;101783.81;6088952;23;45383;-83
2021/08/14 04:49:39;;;;;;;;;1.00;1.00;;;;;19.54;54.29;101815.38;6089217;23;45309;-83
2021/08/14 04:52:04;;;;;;;;;0.00;0.00;;;;;19.26;54.71;101781.38;6089270;23;45464;-82
2021/08/14 04:54:30;;;;;;;;;0.75;0.75;;;;;18.77;54.68;101701.84;6089292;23;45360;-83
2021/08/14 04:56:55;;;;;;;;;0.00;0.00;;;;;19.45;54.51;101811.94;6087357;23;45460;-83
2021/08/14 04:59:20;;;;;;;;;0.00;0.00;;;;;19.58;54.44;101827.63;6087230;23;48112;-82
2021/08/14 05:01:46;;;;;;;;;0.00;0.00;;;;;19.10;54.77;101753.38;6086459;23;45395;-82
2021/08/14 05:04:11;;;;;;;;;0.00;0.00;;;;;18.76;54.81;101686.88;6088973;23;45363;-82
2021/08/14 05:06:40;;;;;;;;;0.00;0.00;;;;;18.87;54.90;101729.84;6087692;23;45369;-82
2021/08/14 05:09:06;;;;;;;;;0.00;0.00;;;;;18.76;55.23;101713.25;6088320;23;45976;-82
2021/08/14 05:11:31;;;;;;;;;0.00;0.00;;;;;18.72;55.31;101721.19;6087365;23;45231;-82
2021/08/14 05:13:56;;;;;;;;;0.00;0.00;;;;;19.47;55.07;101831.28;6087274;23;45275;-82
2021/08/14 05:16:25;;;;;;;;;0.00;0.00;;;;;18.82;55.29;101724.63;6087351;23;45311;-82
2021/08/14 05:18:51;;;;;;;;;0.00;0.00;;;;;18.84;55.46;101717.56;6089072;23;46119;-82
2021/08/14 05:21:16;;;;;;;;;0.00;0.00;;;;;18.80;55.47;101710.56;6088887;23;45439;-82
2021/08/14 05:23:42;;;;;;;;;0.00;0.00;;;;;18.91;54.93;101731.56;6088923;23;45364;-82
2021/08/14 05:26:07;;;;;;;;;0.50;0.50;;;;;19.64;55.25;101832.84;6089248;23;45297;-82
2021/08/14 05:28:32;;;;;;;;;1.00;0.00;;;;;18.94;54.90;101717.47;6089324;23;45669;-81
2021/08/14 05:30:58;;;;;;;;;0.00;0.00;;;;;19.00;55.01;101733.22;6088576;23;45439;-81
2021/08/14 05:33:23;;;;;;;;;4.00;0.00;;;;;19.72;54.77;101846.84;6088618;23;45271;-81
2021/08/14 05:35:48;;;;;;;;;0.00;0.00;;;;;19.19;54.95;101752.41;6087440;23;45563;-82
2021/08/14 05:38:14;;;;;;;;;0.00;0.00;;;;;19.61;54.84;101825.81;6086902;23;47368;-81
2021/08/14 05:40:40;;;;;;;;;0.00;0.00;;;;;19.49;55.22;101804.88;6085321;23;45405;-80
2021/08/14 05:43:05;;;;;;;;;0.00;0.00;;;;;19.78;54.80;101851.16;6088126;23;45294;-81
2021/08/14 05:45:30;;;;;;;;;1.00;0.00;;;;;19.38;54.78;101775.94;6086259;23;45466;-81
2021/08/14 05:47:56;;;;;;;;;0.00;0.00;;;;;19.85;54.75;101844.91;6088200;23;45476;-81
2021/08/14 05:50:21;;;;;;;;;0.50;0.50;;;;;19.53;54.61;101790.72;6087691;23;48280;-81
2021/08/14 05:52:46;;;;;;;;;0.75;0.00;;;;;19.60;54.56;101795.03;6088013;23;45312;-81
2021/08/14 05:55:12;;;;;;;;;0.00;0.00;;;;;19.66;54.46;101785.31;6088204;23;45448;-81
2021/08/14 05:57:37;;;;;;;;;0.00;0.00;;;;;19.88;54.27;101822.88;6087874;23;45533;-81
2021/08/14 06:00:05;;;;;;;;;0.00;0.00;;;;;20.13;54.34;101855.13;6087141;23;49369;-80
2021/08/14 06:02:30;;;;;;;;;1.00;0.00;;;;;19.87;54.08;101811.44;6087195;23;45291;-80
2021/08/14 06:04:55;;;;;;;;;1.00;0.00;;;;;19.67;53.98;101758.88;6087922;23;45359;-80
2021/08/14 06:07:21;;;;;;;;;0.00;0.00;;;;;20.37;54.02;101858.34;6087924;23;45274;-81
2021/08/14 06:09:46;;;;;;;;;0.00;0.00;;;;;19.88;53.62;101772.69;6062521;23;45485;-82
2021/08/14 06:12:11;;;;;;;;;0.00;0.00;;;;;20.53;53.12;101862.53;6085616;23;45988;-79
2021/08/14 06:14:37;;;;;;;;;0.00;0.00;;;;;20.51;53.13;101860.78;6089093;23;45381;-81
2021/08/14 06:17:03;;;;;;;;;0.00;0.00;;;;;20.36;53.16;101823.97;6089031;23;45999;-80
2021/08/14 06:19:28;;;;;;;;;0.00;0.00;;;;;20.64;53.34;101876.44;6089317;23;45273;-79
2021/08/14 06:21:54;;;;;;;;;0.00;0.00;;;;;20.59;53.14;101873.00;6088990;23;45321;-81
2021/08/14 06:24:19;;;;;;;;;0.00;0.00;;;;;20.46;52.76;101857.31;6089477;23;45305;-81
2021/08/14 06:26:46;;;;;;;;;0.00;0.00;;;;;20.59;52.64;101865.97;6088685;23;50041;-81
2021/08/14 06:29:11;;;;;;;;;0.00;0.00;;;;;20.23;52.62;101813.59;6088963;23;45211;-78
2021/08/14 06:31:37;;;;;;;;;1.00;0.00;;;;;20.27;52.53;101818.84;6087753;23;45337;-81
2021/08/14 06:34:02;;;;;;;;;0.00;0.00;;;;;20.45;52.61;101857.34;6089248;23;45246;-79
2021/08/14 06:36:28;;;;;;;;;0.00;0.00;;;;;20.53;52.67;101873.97;6088261;23;46106;-81
2021/08/14 06:38:53;;;;;;;;;0.00;0.00;;;;;20.60;52.62;101873.00;6088103;23;45340;-78
2021/08/14 06:41:18;;;;;;;;;0.00;0.00;;;;;20.68;52.73;101867.59;6088104;23;45402;-79
2021/08/14 06:43:44;;;;;;;;;0.00;0.00;;;;;20.58;52.56;101858.91;6089236;23;45666;-79
2021/08/14 06:46:09;;;;;;;;;1.00;0.00;;;;;20.48;52.48;101838.78;6090299;23;45435;-79
2021/08/14 06:48:35;;;;;;;;;0.00;0.00;;;;;20.61;52.27;101871.22;6089858;23;45328;-81
2021/08/14 06:51:01;;;;;;;;;0.25;0.00;;;;;20.61;52.12;101871.22;6087950;23;45293;-81
2021/08/14 06:53:26;;;;;;;;;0.75;0.00;;;;;20.42;52.47;101836.25;6090503;23;45371;-81
2021/08/14 06:55:52;;;;;;;;;0.00;0.00;;;;;20.66;52.13;101874.66;6089604;23;46273;-80
2021/08/14 06:58:17;;;;;;;;;0.75;0.00;;;;;20.35;52.31;101809.91;6090299;23;45290;-81
2021/08/14 07:00:42;;;;;;;;;0.00;0.00;;;;;20.68;52.29;101857.00;6090148;23;45258;-81
2021/08/14 07:03:08;;;;;;;;;0.00;0.00;;;;;20.87;52.18;101870.81;6090143;23;45234;-78
2021/08/14 07:05:34;;;;;;;;;0.00;0.00;;;;;20.62;51.75;101814.78;6088779;23;46959;-80
2021/08/14 07:07:59;;;;;;;;;1.00;0.00;;;;;20.83;51.02;101842.63;6089930;23;45258;-79
2021/08/14 07:10:25;;;;;;;;;0.00;0.00;;;;;20.17;51.35;101744.09;6088825;23;45369;-82
2021/08/14 07:12:50;;;;;;;;;0.00;0.00;;;;;20.73;50.53;101831.34;6089840;23;45328;-80
2021/08/14 07:15:15;;;;;;;;;0.00;0.00;;;;;20.93;50.70;101867.22;6089545;23;45490;-81
2021/08/14 07:17:41;;;;;;;;;0.00;0.00;;;;;20.95;50.38;101868.03;6090019;23;45319;-78
2021/08/14 07:20:07;;;;;;;;;0.00;0.00;;;;;20.42;50.55;101775.44;6090142;23;45326;-80
2021/08/14 07:22:32;;;;;;;;;0.00;0.00;;;;;20.84;50.30;101846.16;6090746;23;45239;-79
2021/08/14 07:24:57;;;;;;;;;2.25;1.00;;;;;21.05;50.31;101858.19;6089157;23;45245;-79
2021/08/14 07:27:24;;;;;;;;;0.00;0.00;;;;;21.00;50.56;101852.09;6089519;23;45301;-79
2021/08/14 07:29:50;;;;;;;;;0.00;0.00;;;;;20.69;49.97;101784.66;6089376;23;45293;-78
2021/08/14 07:32:15;;;;;;;;;0.00;0.00;;;;;21.23;50.02;101879.94;6089508;23;45301;-85
2021/08/14 07:34:40;;;;;;;;;0.75;0.00;;;;;21.26;49.58;101859.53;6089466;23;45380;-82
2021/08/14 07:37:06;;;;;;;;;0.00;0.00;;;;;21.32;49.91;101869.19;6089176;23;45369;-79
2021/08/14 07:39:32;;;;;;;;;0.00;0.00;;;;;21.39;49.68;101869.91;6089163;23;45391;-80
2021/08/14 07:41:57;;;;;;;;;0.00;0.00;;;;;21.44;49.56;101862.75;6090658;23;45243;-84
2021/08/14 07:44:22;;;;;;;;;0.00;0.00;;;;;21.47;48.81;101867.97;6090450;23;46143;-81
2021/08/14 07:46:48;;;;;;;;;0.00;0.00;;;;;21.51;48.86;101871.47;6088783;23;45738;-80
2021/08/14 07:49:14;;;;;;;;;0.00;0.00;;;;;21.26;49.22;101809.25;6090013;23;45358;-82
2021/08/14 07:51:39;;;;;;;;;0.00;0.00;;;;;21.62;48.58;101860.66;6089563;23;45172;-81
2021/08/14 07:54:04;;;;;;;;;0.00;0.00;;;;;21.61;48.52;101869.50;6086518;23;47543;-81
2021/08/14 07:56:30;;;;;;;;;0.00;0.00;;;;;21.38;48.58;101823.16;6088698;23;45250;-81
2021/08/14 07:58:55;;;;;;;;;0.00;0.00;;;;;21.55;48.00;101853.72;6089715;23;45164;-81
2021/08/14 08:01:20;;;;;;;;;0.00;0.00;;;;;21.58;48.11;101854.53;6087744;23;45420;-81
2021/08/14 08:03:46;;;;;;;;;0.00;0.00;;;;;21.68;48.60;101857.88;6089143;23;45290;-81
2021/08/14 08:06:11;;;;;;;;;0.00;0.00;;;;;21.72;48.57;101838.38;6089207;23;45262;-81
2021/08/14 08:08:37;;;;;;;;;1.75;0.00;;;;;21.83;48.52;101838.16;6086628;23;45626;-81
2021/08/14 08:11:03;;;;;;;;;1.50;0.00;;;;;21.90;47.63;101837.13;6089443;23;45736;-81
2021/08/14 08:13:28;;;;;;;;;0.00;0.00;;;;;21.76;47.40;101792.38;6089056;23;45360;-82
2021/08/14 08:15:54;;;;;;;;;0.00;0.00;;;;;21.91;47.08;101822.09;6089229;23;45324;-81
2021/08/14 08:18:19;;;;;;;;;0.00;0.00;;;;;22.02;47.08;101838.63;6089506;23;45329;-81
2021/08/14 08:20:44;;;;;;;;;0.00;0.00;;;;;21.98;47.40;101830.78;6088946;23;47233;-81
2021/08/14 08:23:10;;;;;;;;;0.00;0.00;;;;;21.97;46.52;101818.44;6088814;23;45352;-82
2021/08/14 08:25:35;;;;;;;;;0.00;0.00;;;;;22.10;45.80;101835.81;6088526;23;60110;-81
2021/08/14 08:28:03;;;;;;;;;1.00;0.00;;;;;21.97;45.84;101819.31;6089550;23;45439;-81
2021/08/14 08:30:29;;;;;;;;;0.00;0.00;;;;;22.11;46.65;101828.75;6089730;23;45471;-81
2021/08/14 08:32:55;;;;;;;;;0.00;0.00;;;;;22.23;46.72;101841.69;6089424;23;45309;-82
2021/08/14 08:35:20;;;;;;;;;0.00;0.00;;;;;22.31;46.25;101836.22;6089622;23;45314;-83
2021/08/14 08:37:46;;;;;;;;;0.00;0.00;;;;;22.40;46.58;101836.03;6088790;23;45215;-79
2021/08/14 08:40:13;;;;;;;;;0.00;0.00;;;;;22.44;46.06;101834.16;6089433;23;45367;-80
2021/08/14 08:42:39;;;;;;;;;0.00;0.00;;;;;22.43;45.81;101831.53;6089126;23;46032;-81
2021/08/14 08:45:05;;;;;;;;;0.00;0.00;;;;;22.52;46.02;101831.31;6088818;23;45470;-81
2021/08/14 08:47:33;;;;;;;;;0.50;0.25;;;;;22.53;46.34;101822.44;6089097;23;45325;-82
2021/08/14 08:49:59;;;;;;;;;0.00;0.00;;;;;22.53;45.32;101810.06;6089533;23;45140;-81
2021/08/14 08:52:26;;;;;;;;;0.00;0.00;;;;;22.69;44.88;101822.97;6088310;23;45307;-80
2021/08/14 08:54:52;;;;;;;;;0.00;0.00;;;;;22.83;44.59;101813.78;6088521;23;45240;-79
2021/08/14 08:57:18;;;;;;;;;0.00;0.00;;;;;22.92;44.05;101810.88;6088589;23;45306;-80
2021/08/14 08:59:45;;;;;;;;;1.50;0.00;;;;;23.02;43.71;101822.13;6089115;23;45290;-82
2021/08/14 09:02:28;;;;;;;;;0.00;0.00;;;;;22.86;43.63;101788.03;6088831;23;46469;-80
2021/08/14 09:05:19;;;;;;;;;0.00;0.00;;;;;23.12;42.49;101820.13;6088639;23;45328;-81
2021/08/14 09:07:47;;;;;;;;;0.00;0.00;;;;;23.15;41.94;101815.56;6088424;23;45185;-79
2021/08/14 09:10:25;;;;;;;;;0.00;0.00;;;;;22.99;42.12;101764.69;6089795;23;45243;-82
2021/08/14 09:12:51;;;;;;;;;0.00;0.00;;;;;23.39;41.78;101809.63;6089349;23;46060;-83
2021/08/14 09:15:28;;;;;;;;;0.00;0.00;;;;;23.57;42.70;101810.00;6089057;23;45360;-81
2021/08/14 09:18:00;;;;;;;;;0.00;0.00;;;;;23.72;43.14;101803.38;6088797;23;45285;-81
2021/08/14 09:20:26;;;;;;;;;0.00;0.00;;;;;23.81;42.45;101804.88;6089212;23;45333;-82
2021/08/14 09:23:05;;;;;;;;;0.00;0.00;;;;;23.87;41.20;101812.69;6088236;23;45416;-81
2021/08/14 09:25:47;;;;;;;;;0.00;0.00;;;;;23.66;41.37;101773.44;6088992;23;45191;-82
2021/08/14 09:28:16;;;;;;;;;0.00;0.00;;;;;23.90;41.25;101810.81;6089098;23;45326;-82
2021/08/14 09:30:53;;;;;;;;;0.00;0.00;;;;;23.96;41.50;101809.75;6089378;23;45229;-80
2021/08/14 09:33:27;;;;;;;;;0.00;0.00;;;;;24.11;41.00;101807.53;6088238;23;46012;-80
2021/08/14 09:36:01;;;;;;;;;0.50;0.00;;;;;24.10;41.22;101795.16;6087799;23;45464;-81
2021/08/14 09:38:43;;;;;;;;;0.50;0.00;;;;;24.24;40.75;101803.59;6088011;23;45313;-81
2021/08/14 09:41:20;;;;;;;;;0.00;0.00;;;;;24.34;41.59;101805.97;6088481;23;45361;-81
2021/08/14 09:43:47;;;;;;;;;0.00;0.00;;;;;24.32;40.71;101803.34;6088695;23;46150;-79
2021/08/14 09:46:12;;;;;;;;;0.00;0.00;;;;;24.45;40.91;101810.91;6089037;23;45282;-80
2021/08/14 09:48:38;;;;;;;;;0.00;0.00;;;;;24.53;40.83;101807.06;6088016;23;45507;-80
2021/08/14 09:51:07;;;;;;;;;0.00;0.00;;;;;24.52;40.74;101808.00;6088711;23;45246;-80
2021/08/14 09:53:32;;;;;;;;;0.00;0.00;;;;;24.57;40.24;101798.97;6088735;23;45553;-80
2021/08/14 09:56:07;;;;;;;;;0.00;0.00;;;;;24.63;40.30;101801.44;6088218;23;45537;-80
2021/08/14 09:58:34;;;;;;;;;0.00;0.00;;;;;24.65;40.27;101799.56;6088804;23;45298;-80
2021/08/14 10:01:01;;;;;;;;;0.00;0.00;;;;;24.65;40.24;101802.22;6088828;23;45151;-80
2021/08/14 10:03:30;;;;;;;;;0.00;0.00;;;;;24.75;40.60;101801.00;6088547;23;45321;-79
2021/08/14 10:05:58;;;;;;;;;0.00;0.00;;;;;24.86;40.75;101794.44;6088133;23;45321;-80
2021/08/14 10:08:24;;;;;;;;;0.00;0.00;;;;;24.90;40.82;101778.31;6088427;23;45417;-80
2021/08/14 10:10:50;;;;;;;;;0.00;0.00;;;;;25.06;40.33;101791.09;6088724;23;45339;-80
2021/08/14 10:13:18;;;;;;;;;0.00;0.00;;;;;25.09;39.80;101790.13;6088513;23;45397;-80
2021/08/14 10:15:44;;;;;;;;;0.00;0.00;;;;;25.09;40.36;101785.69;6088293;23;45342;-80
2021/08/14 10:18:10;;;;;;;;;0.00;0.00;;;;;25.17;40.10;101786.25;6088590;23;45304;-79
2021/08/14 10:20:35;;;;;;;;;1.50;0.00;;;;;25.12;40.24;101766.91;6088381;23;45421;-80
2021/08/14 10:23:07;;;;;;;;;0.00;0.00;;;;;25.27;39.63;101781.44;6089725;23;46655;-81
2021/08/14 10:25:36;;;;;;;;;0.00;0.00;;;;;25.33;39.66;101774.16;6090360;23;45221;-81
2021/08/14 10:28:04;;;;;;;;;1.25;0.00;;;;;25.34;39.86;101776.78;6089911;23;45345;-81
2021/08/14 10:30:43;;;;;;;;;0.00;0.00;;;;;25.37;40.07;101768.66;6090943;23;45470;-80
2021/08/14 10:33:28;;;;;;;;;0.00;0.00;;;;;25.36;39.35;101756.25;6089825;23;47153;-80
2021/08/14 10:35:56;;;;;;;;;0.00;0.00;;;;;25.46;39.20;101761.22;6090068;23;45514;-80
2021/08/14 10:38:40;;;;;;;;;0.00;0.00;;;;;25.52;39.54;101756.56;6090506;23;45329;-80
2021/08/14 10:41:07;;;;;;;;;0.00;0.00;;;;;25.58;39.16;101757.22;6090525;23;45334;-81
2021/08/14 10:43:54;;;;;;;;;0.00;0.00;;;;;25.61;38.51;101757.13;6090137;23;46461;-81
2021/08/14 10:46:31;;;;;;;;;0.00;0.00;;;;;25.63;38.95;101756.16;6090153;23;45234;-81
2021/08/14 10:48:58;;;;;;;;;0.00;0.00;;;;;25.64;39.13;101746.34;6089412;23;45345;-80
2021/08/14 10:51:46;;;;;;;;;0.00;0.00;;;;;25.68;38.93;101740.84;6090267;23;45387;-80
2021/08/14 10:54:12;;;;;;;;;0.00;0.00;;;;;25.66;39.25;101725.81;6089534;23;45378;-80
2021/08/14 10:56:50;;;;;;;;;0.00;0.00;;;;;25.77;38.70;101736.94;6089974;23;45364;-81
2021/08/14 10:59:34;;;;;;;;;0.00;0.00;;;;;25.83;37.63;101729.63;6089828;23;45356;-80
2021/08/14 11:02:00;;;;;;;;;0.00;0.00;;;;;25.86;37.91;101734.81;6090227;23;45122;-81
2021/08/14 11:04:56;;;;;;;;;0.00;0.00;;;;;25.86;37.84;101729.50;6089899;23;46404;-81
2021/08/14 11:07:21;;;;;;;;;0.00;0.00;;;;;25.86;37.25;101732.16;6089040;23;45295;-79
2021/08/14 11:09:47;;;;;;;;;2.00;0.00;;;;;25.81;37.35;101735.88;6089738;23;45424;-80
2021/08/14 11:12:31;;;;;;;;;0.00;0.00;;;;;25.82;37.55;101734.09;6089996;23;45223;-80
2021/08/14 11:15:14;;;;;;;;;0.00;0.00;;;;;25.87;37.69;101729.44;6089514;23;46356;-80
2021/08/14 11:17:39;;;;;;;;;0.00;0.00;;;;;25.86;37.61;101732.16;6089362;23;45417;-79
2021/08/14 11:20:25;;;;;;;;;0.00;0.00;;;;;25.88;37.70;101730.31;6089731;23;45291;-80
2021/08/14 11:22:55;;;;;;;;;0.00;0.00;;;;;25.95;37.90;101721.13;6089529;23;45385;-81